sensor_id;sensor_type;location;lat;lon;timestamp;temperature;humidity
20372;DHT22;63562;30.520;-97.766;2022-10-17T00:01:28;27.60;99.90
20372;DHT22;63562;30.520;-97.766;2022-10-17T00:04:01;27.50;99.90
20372;DHT22;63562;30.520;-97.766;2022-10-17T00:06:31;27.50;99.90
20372;DHT22;63562;30.520;-97.766;2022-10-17T00:09:05;27.40;99.90
20372;DHT22;63562;30.520;-97.766;2022-10-17T00:11:35;27.30;99.90
20372;DHT22;63562;30.520;-97.766;2022-10-17T00:14:05;27.20;99.90
20372;DHT22;63562;30.520;-97.766;2022-10-17T00:16:36;27.20;99.90
20372;DHT22;63562;30.520;-97.766;2022-10-17T00:19:06;27.10;99.90
20372;DHT22;63562;30.520;-97.766;2022-10-17T00:21:37;27.00;99.90
20372;DHT22;63562;30.520;-97.766;2022-10-17T00:24:07;26.80;99.90
20372;DHT22;63562;30.520;-97.766;2022-10-17T00:26:40;26.80;99.90
20372;DHT22;63562;30.520;-97.766;2022-10-17T00:29:11;26.70;99.90
20372;DHT22;63562;30.520;-97.766;2022-10-17T00:31:41;26.60;99.90
20372;DHT22;63562;30.520;-97.766;2022-10-17T00:34:12;26.60;99.90
20372;DHT22;63562;30.520;-97.766;2022-10-17T00:36:43;26.50;99.90
20372;DHT22;63562;30.520;-97.766;2022-10-17T00:39:13;26.30;99.90
20372;DHT22;63562;30.520;-97.766;2022-10-17T00:41:43;26.10;99.90
20372;DHT22;63562;30.520;-97.766;2022-10-17T00:47:04;25.90;99.90
20372;DHT22;63562;30.520;-97.766;2022-10-17T00:49:36;25.90;99.90
20372;DHT22;63562;30.520;-97.766;2022-10-17T00:52:25;25.80;99.90
20372;DHT22;63562;30.520;-97.766;2022-10-17T00:55:23;25.80;99.90
20372;DHT22;63562;30.520;-97.766;2022-10-17T00:57:54;25.50;99.90
20372;DHT22;63562;30.520;-97.766;2022-10-17T01:00:25;25.40;99.90
20372;DHT22;63562;30.520;-97.766;2022-10-17T01:02:57;25.40;99.90
20372;DHT22;63562;30.520;-97.766;2022-10-17T01:05:29;25.40;99.90
20372;DHT22;63562;30.520;-97.766;2022-10-17T01:08:02;25.30;99.90
20372;DHT22;63562;30.520;-97.766;2022-10-17T01:13:48;25.10;99.90
20372;DHT22;63562;30.520;-97.766;2022-10-17T01:19:02;24.90;99.90
20372;DHT22;63562;30.520;-97.766;2022-10-17T01:24:54;24.80;99.90
20372;DHT22;63562;30.520;-97.766;2022-10-17T01:42:05;24.50;99.90
20372;DHT22;63562;30.520;-97.766;2022-10-17T01:44:58;24.50;99.90
20372;DHT22;63562;30.520;-97.766;2022-10-17T01:47:37;24.40;99.90
20372;DHT22;63562;30.520;-97.766;2022-10-17T01:50:32;24.30;99.90
20372;DHT22;63562;30.520;-97.766;2022-10-17T01:53:13;24.50;99.90
20372;DHT22;63562;30.520;-97.766;2022-10-17T01:55:48;24.20;99.90
20372;DHT22;63562;30.520;-97.766;2022-10-17T01:58:50;24.10;99.90
20372;DHT22;63562;30.520;-97.766;2022-10-17T02:01:24;24.20;99.90
20372;DHT22;63562;30.520;-97.766;2022-10-17T02:03:56;24.10;99.90
20372;DHT22;63562;30.520;-97.766;2022-10-17T02:06:28;23.90;99.90
20372;DHT22;63562;30.520;-97.766;2022-10-17T02:08:57;24.00;99.90
20372;DHT22;63562;30.520;-97.766;2022-10-17T02:11:28;23.80;99.90
20372;DHT22;63562;30.520;-97.766;2022-10-17T02:22:48;23.70;99.90
20372;DHT22;63562;30.520;-97.766;2022-10-17T02:25:40;23.70;99.90
20372;DHT22;63562;30.520;-97.766;2022-10-17T02:33:45;23.60;99.90
20372;DHT22;63562;30.520;-97.766;2022-10-17T02:36:22;23.60;99.90
20372;DHT22;63562;30.520;-97.766;2022-10-17T02:38:54;23.60;99.90
20372;DHT22;63562;30.520;-97.766;2022-10-17T02:41:26;23.70;99.90
20372;DHT22;63562;30.520;-97.766;2022-10-17T02:44:03;23.70;99.90
20372;DHT22;63562;30.520;-97.766;2022-10-17T02:46:34;23.50;99.90
20372;DHT22;63562;30.520;-97.766;2022-10-17T02:49:19;23.60;99.90
20372;DHT22;63562;30.520;-97.766;2022-10-17T02:51:58;23.50;99.90
20372;DHT22;63562;30.520;-97.766;2022-10-17T02:54:50;23.50;99.90
20372;DHT22;63562;30.520;-97.766;2022-10-17T02:57:38;23.50;99.90
20372;DHT22;63562;30.520;-97.766;2022-10-17T03:00:12;23.50;99.90
20372;DHT22;63562;30.520;-97.766;2022-10-17T03:02:47;23.30;99.90
20372;DHT22;63562;30.520;-97.766;2022-10-17T03:05:28;23.20;99.90
20372;DHT22;63562;30.520;-97.766;2022-10-17T03:08:01;23.20;99.90
20372;DHT22;63562;30.520;-97.766;2022-10-17T03:10:30;23.30;99.90
20372;DHT22;63562;30.520;-97.766;2022-10-17T03:13:03;23.20;99.90
20372;DHT22;63562;30.520;-97.766;2022-10-17T03:15:37;23.20;99.90
20372;DHT22;63562;30.520;-97.766;2022-10-17T03:18:08;23.10;99.90
20372;DHT22;63562;30.520;-97.766;2022-10-17T03:20:39;23.10;99.90
20372;DHT22;63562;30.520;-97.766;2022-10-17T03:23:13;23.00;99.90
20372;DHT22;63562;30.520;-97.766;2022-10-17T03:25:43;23.10;99.90
20372;DHT22;63562;30.520;-97.766;2022-10-17T03:28:16;23.10;99.90
20372;DHT22;63562;30.520;-97.766;2022-10-17T03:30:45;22.90;99.90
20372;DHT22;63562;30.520;-97.766;2022-10-17T03:33:16;23.00;99.90
20372;DHT22;63562;30.520;-97.766;2022-10-17T03:35:46;23.00;99.90
20372;DHT22;63562;30.520;-97.766;2022-10-17T03:38:18;23.00;99.90
20372;DHT22;63562;30.520;-97.766;2022-10-17T03:40:55;23.00;99.90
20372;DHT22;63562;30.520;-97.766;2022-10-17T03:43:28;23.00;99.90
20372;DHT22;63562;30.520;-97.766;2022-10-17T03:45:59;23.10;99.90
20372;DHT22;63562;30.520;-97.766;2022-10-17T03:48:30;23.00;99.90
20372;DHT22;63562;30.520;-97.766;2022-10-17T03:51:03;22.80;99.90
20372;DHT22;63562;30.520;-97.766;2022-10-17T03:53:42;22.80;99.90
20372;DHT22;63562;30.520;-97.766;2022-10-17T03:56:19;22.70;99.90
20372;DHT22;63562;30.520;-97.766;2022-10-17T03:59:05;22.60;99.90
20372;DHT22;63562;30.520;-97.766;2022-10-17T04:01:38;22.60;99.90
20372;DHT22;63562;30.520;-97.766;2022-10-17T04:04:09;22.70;99.90
20372;DHT22;63562;30.520;-97.766;2022-10-17T04:06:43;22.70;99.90
20372;DHT22;63562;30.520;-97.766;2022-10-17T04:09:16;22.70;99.90
20372;DHT22;63562;30.520;-97.766;2022-10-17T04:11:53;22.70;99.90
20372;DHT22;63562;30.520;-97.766;2022-10-17T04:14:24;22.60;99.90
20372;DHT22;63562;30.520;-97.766;2022-10-17T04:16:54;22.80;99.90
20372;DHT22;63562;30.520;-97.766;2022-10-17T04:19:28;22.70;99.90
20372;DHT22;63562;30.520;-97.766;2022-10-17T04:21:58;22.70;99.90
20372;DHT22;63562;30.520;-97.766;2022-10-17T04:24:30;22.70;99.90
20372;DHT22;63562;30.520;-97.766;2022-10-17T04:27:06;22.60;99.90
20372;DHT22;63562;30.520;-97.766;2022-10-17T04:29:43;22.60;99.90
20372;DHT22;63562;30.520;-97.766;2022-10-17T04:32:22;22.40;99.90
20372;DHT22;63562;30.520;-97.766;2022-10-17T04:35:00;22.10;99.90
20372;DHT22;63562;30.520;-97.766;2022-10-17T04:37:34;22.00;99.90
20372;DHT22;63562;30.520;-97.766;2022-10-17T04:40:12;21.90;99.90
20372;DHT22;63562;30.520;-97.766;2022-10-17T04:42:42;21.70;99.90
20372;DHT22;63562;30.520;-97.766;2022-10-17T04:45:17;21.70;99.90
20372;DHT22;63562;30.520;-97.766;2022-10-17T04:47:58;21.70;99.90
20372;DHT22;63562;30.520;-97.766;2022-10-17T04:50:29;21.70;99.90
20372;DHT22;63562;30.520;-97.766;2022-10-17T04:53:17;21.70;99.90
20372;DHT22;63562;30.520;-97.766;2022-10-17T04:55:47;21.70;99.90
20372;DHT22;63562;30.520;-97.766;2022-10-17T04:58:22;21.20;99.90
20372;DHT22;63562;30.520;-97.766;2022-10-17T05:00:52;21.10;99.90
20372;DHT22;63562;30.520;-97.766;2022-10-17T05:03:29;21.00;99.90
20372;DHT22;63562;30.520;-97.766;2022-10-17T05:06:06;21.10;99.90
20372;DHT22;63562;30.520;-97.766;2022-10-17T05:08:38;20.80;99.90
20372;DHT22;63562;30.520;-97.766;2022-10-17T05:13:56;20.50;99.90
20372;DHT22;63562;30.520;-97.766;2022-10-17T05:16:29;20.20;99.90
20372;DHT22;63562;30.520;-97.766;2022-10-17T05:18:59;19.70;99.90
20372;DHT22;63562;30.520;-97.766;2022-10-17T05:21:35;20.00;99.90
20372;DHT22;63562;30.520;-97.766;2022-10-17T05:24:07;20.00;99.90
20372;DHT22;63562;30.520;-97.766;2022-10-17T05:26:39;19.90;99.90
20372;DHT22;63562;30.520;-97.766;2022-10-17T05:29:11;19.90;99.90
20372;DHT22;63562;30.520;-97.766;2022-10-17T05:31:48;20.00;99.90
20372;DHT22;63562;30.520;-97.766;2022-10-17T05:34:20;20.10;99.90
20372;DHT22;63562;30.520;-97.766;2022-10-17T05:36:52;20.30;99.90
20372;DHT22;63562;30.520;-97.766;2022-10-17T05:39:23;20.40;99.90
20372;DHT22;63562;30.520;-97.766;2022-10-17T05:41:54;20.60;99.90
20372;DHT22;63562;30.520;-97.766;2022-10-17T05:44:24;20.60;99.90
20372;DHT22;63562;30.520;-97.766;2022-10-17T05:46:59;20.60;99.90
20372;DHT22;63562;30.520;-97.766;2022-10-17T05:49:28;20.30;99.90
20372;DHT22;63562;30.520;-97.766;2022-10-17T05:52:18;20.40;99.90
20372;DHT22;63562;30.520;-97.766;2022-10-17T05:55:06;20.60;99.90
20372;DHT22;63562;30.520;-97.766;2022-10-17T05:57:36;20.40;99.90
20372;DHT22;63562;30.520;-97.766;2022-10-17T06:00:10;20.10;99.90
20372;DHT22;63562;30.520;-97.766;2022-10-17T06:02:50;19.90;99.90
20372;DHT22;63562;30.520;-97.766;2022-10-17T06:05:20;20.30;99.90
20372;DHT22;63562;30.520;-97.766;2022-10-17T06:07:55;20.20;99.90
20372;DHT22;63562;30.520;-97.766;2022-10-17T06:10:33;20.30;99.90
20372;DHT22;63562;30.520;-97.766;2022-10-17T06:13:03;20.40;99.90
20372;DHT22;63562;30.520;-97.766;2022-10-17T06:15:34;20.20;99.90
20372;DHT22;63562;30.520;-97.766;2022-10-17T06:18:11;20.40;99.90
20372;DHT22;63562;30.520;-97.766;2022-10-17T06:20:40;20.30;99.90
20372;DHT22;63562;30.520;-97.766;2022-10-17T06:23:15;20.30;99.90
20372;DHT22;63562;30.520;-97.766;2022-10-17T06:26:05;20.40;99.90
20372;DHT22;63562;30.520;-97.766;2022-10-17T06:28:37;20.40;99.90
20372;DHT22;63562;30.520;-97.766;2022-10-17T06:31:14;20.50;99.90
20372;DHT22;63562;30.520;-97.766;2022-10-17T06:33:43;20.30;99.90
20372;DHT22;63562;30.520;-97.766;2022-10-17T06:36:14;20.40;99.90
20372;DHT22;63562;30.520;-97.766;2022-10-17T06:38:48;20.50;99.90
20372;DHT22;63562;30.520;-97.766;2022-10-17T06:41:24;20.50;99.90
20372;DHT22;63562;30.520;-97.766;2022-10-17T06:43:54;20.50;99.90
20372;DHT22;63562;30.520;-97.766;2022-10-17T06:46:57;20.50;99.90
20372;DHT22;63562;30.520;-97.766;2022-10-17T06:49:27;20.50;99.90
20372;DHT22;63562;30.520;-97.766;2022-10-17T06:52:17;20.40;99.90
20372;DHT22;63562;30.520;-97.766;2022-10-17T06:55:09;20.40;99.90
20372;DHT22;63562;30.520;-97.766;2022-10-17T06:57:55;20.30;99.90
20372;DHT22;63562;30.520;-97.766;2022-10-17T07:00:51;20.30;99.90
20372;DHT22;63562;30.520;-97.766;2022-10-17T07:03:26;20.20;99.90
20372;DHT22;63562;30.520;-97.766;2022-10-17T07:05:57;20.00;99.90
20372;DHT22;63562;30.520;-97.766;2022-10-17T07:08:29;20.00;99.90
20372;DHT22;63562;30.520;-97.766;2022-10-17T07:11:15;20.20;99.90
20372;DHT22;63562;30.520;-97.766;2022-10-17T07:13:49;20.20;99.90
20372;DHT22;63562;30.520;-97.766;2022-10-17T07:16:22;20.10;99.90
20372;DHT22;63562;30.520;-97.766;2022-10-17T07:19:23;20.00;99.90
20372;DHT22;63562;30.520;-97.766;2022-10-17T07:21:53;20.10;99.90
20372;DHT22;63562;30.520;-97.766;2022-10-17T07:24:24;20.30;99.90
20372;DHT22;63562;30.520;-97.766;2022-10-17T07:27:01;20.20;99.90
20372;DHT22;63562;30.520;-97.766;2022-10-17T07:29:31;20.10;99.90
20372;DHT22;63562;30.520;-97.766;2022-10-17T07:32:08;20.10;99.90
20372;DHT22;63562;30.520;-97.766;2022-10-17T07:34:37;20.10;99.90
20372;DHT22;63562;30.520;-97.766;2022-10-17T07:37:08;20.00;99.90
20372;DHT22;63562;30.520;-97.766;2022-10-17T07:39:45;19.90;99.90
20372;DHT22;63562;30.520;-97.766;2022-10-17T07:42:17;19.80;99.90
20372;DHT22;63562;30.520;-97.766;2022-10-17T07:44:47;19.90;99.90
20372;DHT22;63562;30.520;-97.766;2022-10-17T07:47:18;19.90;99.90
20372;DHT22;63562;30.520;-97.766;2022-10-17T07:49:49;20.00;99.90
20372;DHT22;63562;30.520;-97.766;2022-10-17T07:52:21;20.10;99.90
20372;DHT22;63562;30.520;-97.766;2022-10-17T07:54:52;20.10;99.90
20372;DHT22;63562;30.520;-97.766;2022-10-17T07:57:22;20.10;99.90
20372;DHT22;63562;30.520;-97.766;2022-10-17T07:59:52;20.10;99.90
20372;DHT22;63562;30.520;-97.766;2022-10-17T08:02:26;20.00;99.90
20372;DHT22;63562;30.520;-97.766;2022-10-17T08:04:56;20.00;99.90
20372;DHT22;63562;30.520;-97.766;2022-10-17T08:07:29;20.00;99.90
20372;DHT22;63562;30.520;-97.766;2022-10-17T08:09:59;20.10;99.90
20372;DHT22;63562;30.520;-97.766;2022-10-17T08:12:29;20.00;99.90
20372;DHT22;63562;30.520;-97.766;2022-10-17T08:15:03;19.90;99.90
20372;DHT22;63562;30.520;-97.766;2022-10-17T08:17:35;19.90;99.90
20372;DHT22;63562;30.520;-97.766;2022-10-17T08:20:07;19.80;99.90
20372;DHT22;63562;30.520;-97.766;2022-10-17T08:22:37;19.80;99.90
20372;DHT22;63562;30.520;-97.766;2022-10-17T08:25:08;19.80;99.90
20372;DHT22;63562;30.520;-97.766;2022-10-17T08:27:38;19.90;99.90
20372;DHT22;63562;30.520;-97.766;2022-10-17T08:30:08;19.70;99.90
20372;DHT22;63562;30.520;-97.766;2022-10-17T08:32:38;19.80;99.90
20372;DHT22;63562;30.520;-97.766;2022-10-17T08:35:08;19.80;99.90
20372;DHT22;63562;30.520;-97.766;2022-10-17T08:37:41;19.90;99.90
20372;DHT22;63562;30.520;-97.766;2022-10-17T08:40:18;19.90;99.90
20372;DHT22;63562;30.520;-97.766;2022-10-17T08:45:54;20.00;99.90
20372;DHT22;63562;30.520;-97.766;2022-10-17T08:48:35;19.90;99.90
20372;DHT22;63562;30.520;-97.766;2022-10-17T08:51:23;20.00;99.90
20372;DHT22;63562;30.520;-97.766;2022-10-17T08:56:42;19.90;99.90
20372;DHT22;63562;30.520;-97.766;2022-10-17T08:59:26;19.80;99.90
20372;DHT22;63562;30.520;-97.766;2022-10-17T09:07:49;19.90;99.90
20372;DHT22;63562;30.520;-97.766;2022-10-17T09:14:09;19.60;99.90
20372;DHT22;63562;30.520;-97.766;2022-10-17T09:19:39;19.80;99.90
20372;DHT22;63562;30.520;-97.766;2022-10-17T09:22:17;19.70;99.90
20372;DHT22;63562;30.520;-97.766;2022-10-17T09:24:53;19.60;99.90
20372;DHT22;63562;30.520;-97.766;2022-10-17T09:27:25;19.60;99.90
20372;DHT22;63562;30.520;-97.766;2022-10-17T09:30:42;19.50;99.90
20372;DHT22;63562;30.520;-97.766;2022-10-17T09:33:18;19.50;99.90
20372;DHT22;63562;30.520;-97.766;2022-10-17T09:36:22;19.70;99.90
20372;DHT22;63562;30.520;-97.766;2022-10-17T09:38:58;19.70;99.90
20372;DHT22;63562;30.520;-97.766;2022-10-17T09:44:32;19.50;99.90
20372;DHT22;63562;30.520;-97.766;2022-10-17T09:49:43;19.50;99.90
20372;DHT22;63562;30.520;-97.766;2022-10-17T09:52:29;19.50;99.90
20372;DHT22;63562;30.520;-97.766;2022-10-17T09:55:04;19.50;99.90
20372;DHT22;63562;30.520;-97.766;2022-10-17T09:57:59;19.50;99.90
20372;DHT22;63562;30.520;-97.766;2022-10-17T10:00:46;19.40;99.90
20372;DHT22;63562;30.520;-97.766;2022-10-17T10:03:21;19.50;99.90
20372;DHT22;63562;30.520;-97.766;2022-10-17T10:08:34;19.50;99.90
20372;DHT22;63562;30.520;-97.766;2022-10-17T10:11:06;19.30;99.90
20372;DHT22;63562;30.520;-97.766;2022-10-17T10:13:42;19.30;99.90
20372;DHT22;63562;30.520;-97.766;2022-10-17T10:16:15;19.30;99.90
20372;DHT22;63562;30.520;-97.766;2022-10-17T10:18:46;19.30;99.90
20372;DHT22;63562;30.520;-97.766;2022-10-17T10:21:21;19.40;99.90
20372;DHT22;63562;30.520;-97.766;2022-10-17T10:24:12;19.30;99.90
20372;DHT22;63562;30.520;-97.766;2022-10-17T10:29:28;19.40;99.90
20372;DHT22;63562;30.520;-97.766;2022-10-17T10:32:30;19.40;99.90
20372;DHT22;63562;30.520;-97.766;2022-10-17T10:35:22;19.50;99.90
20372;DHT22;63562;30.520;-97.766;2022-10-17T10:37:57;19.40;99.90
20372;DHT22;63562;30.520;-97.766;2022-10-17T10:40:35;19.40;99.90
20372;DHT22;63562;30.520;-97.766;2022-10-17T10:43:06;19.30;99.90
20372;DHT22;63562;30.520;-97.766;2022-10-17T10:45:42;19.30;99.90
20372;DHT22;63562;30.520;-97.766;2022-10-17T10:48:24;19.40;99.90
20372;DHT22;63562;30.520;-97.766;2022-10-17T10:50:59;19.20;99.90
20372;DHT22;63562;30.520;-97.766;2022-10-17T10:56:37;19.30;99.90
20372;DHT22;63562;30.520;-97.766;2022-10-17T10:59:16;19.20;99.90
20372;DHT22;63562;30.520;-97.766;2022-10-17T11:07:03;19.20;99.90
20372;DHT22;63562;30.520;-97.766;2022-10-17T11:13:11;19.00;99.90
20372;DHT22;63562;30.520;-97.766;2022-10-17T11:15:58;19.00;99.90
20372;DHT22;63562;30.520;-97.766;2022-10-17T11:19:08;19.10;99.90
20372;DHT22;63562;30.520;-97.766;2022-10-17T11:21:59;19.10;99.90
20372;DHT22;63562;30.520;-97.766;2022-10-17T11:24:43;19.00;99.90
20372;DHT22;63562;30.520;-97.766;2022-10-17T11:27:16;19.00;99.90
20372;DHT22;63562;30.520;-97.766;2022-10-17T11:29:45;18.90;99.90
20372;DHT22;63562;30.520;-97.766;2022-10-17T11:32:25;18.90;99.90
20372;DHT22;63562;30.520;-97.766;2022-10-17T11:35:14;18.90;99.90
20372;DHT22;63562;30.520;-97.766;2022-10-17T11:37:59;18.90;99.90
20372;DHT22;63562;30.520;-97.766;2022-10-17T11:40:36;18.80;99.90
20372;DHT22;63562;30.520;-97.766;2022-10-17T11:43:14;18.90;99.90
20372;DHT22;63562;30.520;-97.766;2022-10-17T11:45:55;18.80;99.90
20372;DHT22;63562;30.520;-97.766;2022-10-17T11:48:36;18.80;99.90
20372;DHT22;63562;30.520;-97.766;2022-10-17T11:51:14;18.70;99.90
20372;DHT22;63562;30.520;-97.766;2022-10-17T12:03:16;18.30;99.90
20372;DHT22;63562;30.520;-97.766;2022-10-17T12:09:06;18.30;99.90
20372;DHT22;63562;30.520;-97.766;2022-10-17T12:14:39;18.30;99.90
20372;DHT22;63562;30.520;-97.766;2022-10-17T12:17:33;18.00;99.90
20372;DHT22;63562;30.520;-97.766;2022-10-17T12:31:22;18.00;99.90
20372;DHT22;63562;30.520;-97.766;2022-10-17T12:34:03;18.00;99.90
20372;DHT22;63562;30.520;-97.766;2022-10-17T12:46:55;17.80;99.90
20372;DHT22;63562;30.520;-97.766;2022-10-17T12:49:44;17.90;99.90
20372;DHT22;63562;30.520;-97.766;2022-10-17T12:52:20;18.00;99.90
20372;DHT22;63562;30.520;-97.766;2022-10-17T12:54:57;17.80;99.90
20372;DHT22;63562;30.520;-97.766;2022-10-17T13:03:32;18.00;99.90
20372;DHT22;63562;30.520;-97.766;2022-10-17T13:06:06;17.90;99.90
20372;DHT22;63562;30.520;-97.766;2022-10-17T13:08:42;17.90;99.90
20372;DHT22;63562;30.520;-97.766;2022-10-17T13:11:24;17.80;99.90
20372;DHT22;63562;30.520;-97.766;2022-10-17T13:13:58;17.90;99.90
20372;DHT22;63562;30.520;-97.766;2022-10-17T13:16:33;17.80;99.90
20372;DHT22;63562;30.520;-97.766;2022-10-17T13:19:16;17.80;99.90
20372;DHT22;63562;30.520;-97.766;2022-10-17T13:21:59;17.80;99.90
20372;DHT22;63562;30.520;-97.766;2022-10-17T13:24:37;17.80;99.90
20372;DHT22;63562;30.520;-97.766;2022-10-17T13:27:28;17.70;99.90
20372;DHT22;63562;30.520;-97.766;2022-10-17T13:30:02;17.70;99.90
20372;DHT22;63562;30.520;-97.766;2022-10-17T13:32:38;17.50;99.90
20372;DHT22;63562;30.520;-97.766;2022-10-17T13:35:21;17.60;99.90
20372;DHT22;63562;30.520;-97.766;2022-10-17T13:38:14;17.50;99.90
20372;DHT22;63562;30.520;-97.766;2022-10-17T13:40:45;17.70;99.90
20372;DHT22;63562;30.520;-97.766;2022-10-17T13:43:24;17.70;99.90
20372;DHT22;63562;30.520;-97.766;2022-10-17T13:46:01;17.70;99.90
20372;DHT22;63562;30.520;-97.766;2022-10-17T13:48:53;17.80;99.90
20372;DHT22;63562;30.520;-97.766;2022-10-17T13:51:25;17.70;99.90
20372;DHT22;63562;30.520;-97.766;2022-10-17T13:53:56;17.60;99.90
20372;DHT22;63562;30.520;-97.766;2022-10-17T13:56:30;17.70;99.90
20372;DHT22;63562;30.520;-97.766;2022-10-17T13:59:32;17.60;99.90
20372;DHT22;63562;30.520;-97.766;2022-10-17T14:02:04;17.70;99.90
20372;DHT22;63562;30.520;-97.766;2022-10-17T14:04:41;17.80;99.90
20372;DHT22;63562;30.520;-97.766;2022-10-17T14:10:36;17.80;99.90
20372;DHT22;63562;30.520;-97.766;2022-10-17T14:13:21;17.70;99.90
20372;DHT22;63562;30.520;-97.766;2022-10-17T14:15:58;17.70;99.90
20372;DHT22;63562;30.520;-97.766;2022-10-17T14:18:32;17.70;99.90
20372;DHT22;63562;30.520;-97.766;2022-10-17T14:21:05;17.80;99.90
20372;DHT22;63562;30.520;-97.766;2022-10-17T14:24:29;17.80;99.90
20372;DHT22;63562;30.520;-97.766;2022-10-17T14:33:36;17.80;99.90
20372;DHT22;63562;30.520;-97.766;2022-10-17T14:36:11;17.70;99.90
20372;DHT22;63562;30.520;-97.766;2022-10-17T14:38:50;17.60;99.90
20372;DHT22;63562;30.520;-97.766;2022-10-17T14:41:25;17.60;99.90
20372;DHT22;63562;30.520;-97.766;2022-10-17T14:44:27;17.60;99.90
20372;DHT22;63562;30.520;-97.766;2022-10-17T14:47:03;17.80;99.90
20372;DHT22;63562;30.520;-97.766;2022-10-17T14:55:54;17.70;99.90
20372;DHT22;63562;30.520;-97.766;2022-10-17T14:58:29;17.90;99.90
20372;DHT22;63562;30.520;-97.766;2022-10-17T15:01:00;18.00;99.90
20372;DHT22;63562;30.520;-97.766;2022-10-17T15:03:30;18.00;99.90
20372;DHT22;63562;30.520;-97.766;2022-10-17T15:06:19;17.90;99.90
20372;DHT22;63562;30.520;-97.766;2022-10-17T15:08:50;18.00;99.90
20372;DHT22;63562;30.520;-97.766;2022-10-17T15:11:20;18.20;99.90
20372;DHT22;63562;30.520;-97.766;2022-10-17T15:13:51;18.10;99.90
20372;DHT22;63562;30.520;-97.766;2022-10-17T15:16:26;18.10;99.90
20372;DHT22;63562;30.520;-97.766;2022-10-17T15:19:00;18.20;99.90
20372;DHT22;63562;30.520;-97.766;2022-10-17T15:21:32;18.10;99.90
20372;DHT22;63562;30.520;-97.766;2022-10-17T15:24:16;18.10;99.90
20372;DHT22;63562;30.520;-97.766;2022-10-17T15:26:46;18.10;99.90
20372;DHT22;63562;30.520;-97.766;2022-10-17T15:29:17;18.10;99.90
20372;DHT22;63562;30.520;-97.766;2022-10-17T15:31:46;18.10;99.90
20372;DHT22;63562;30.520;-97.766;2022-10-17T15:34:17;18.10;99.90
20372;DHT22;63562;30.520;-97.766;2022-10-17T15:36:51;18.00;99.90
20372;DHT22;63562;30.520;-97.766;2022-10-17T15:39:23;18.10;99.90
20372;DHT22;63562;30.520;-97.766;2022-10-17T15:41:54;18.10;99.90
20372;DHT22;63562;30.520;-97.766;2022-10-17T15:44:24;18.20;99.90
20372;DHT22;63562;30.520;-97.766;2022-10-17T15:46:54;18.10;99.90
20372;DHT22;63562;30.520;-97.766;2022-10-17T15:49:25;18.20;99.90
20372;DHT22;63562;30.520;-97.766;2022-10-17T15:51:55;18.30;99.90
20372;DHT22;63562;30.520;-97.766;2022-10-17T15:54:26;18.30;99.90
20372;DHT22;63562;30.520;-97.766;2022-10-17T15:56:55;18.40;99.90
20372;DHT22;63562;30.520;-97.766;2022-10-17T15:59:31;18.40;99.90
20372;DHT22;63562;30.520;-97.766;2022-10-17T16:02:01;18.40;99.90
20372;DHT22;63562;30.520;-97.766;2022-10-17T16:04:32;18.50;99.90
20372;DHT22;63562;30.520;-97.766;2022-10-17T16:07:05;18.50;99.90
20372;DHT22;63562;30.520;-97.766;2022-10-17T16:09:35;18.50;99.90
20372;DHT22;63562;30.520;-97.766;2022-10-17T16:12:31;18.50;99.90
20372;DHT22;63562;30.520;-97.766;2022-10-17T16:15:05;18.50;99.90
20372;DHT22;63562;30.520;-97.766;2022-10-17T16:17:35;18.50;99.90
20372;DHT22;63562;30.520;-97.766;2022-10-17T16:20:05;18.50;99.90
20372;DHT22;63562;30.520;-97.766;2022-10-17T16:22:36;18.50;99.90
20372;DHT22;63562;30.520;-97.766;2022-10-17T16:25:23;18.50;99.90
20372;DHT22;63562;30.520;-97.766;2022-10-17T16:27:59;18.50;99.90
20372;DHT22;63562;30.520;-97.766;2022-10-17T16:30:30;18.50;99.90
20372;DHT22;63562;30.520;-97.766;2022-10-17T16:33:01;18.50;99.90
20372;DHT22;63562;30.520;-97.766;2022-10-17T16:35:34;18.50;99.90
20372;DHT22;63562;30.520;-97.766;2022-10-17T16:38:06;18.40;99.90
20372;DHT22;63562;30.520;-97.766;2022-10-17T16:40:39;18.50;99.90
20372;DHT22;63562;30.520;-97.766;2022-10-17T16:43:11;18.60;99.90
20372;DHT22;63562;30.520;-97.766;2022-10-17T16:45:46;18.60;99.90
20372;DHT22;63562;30.520;-97.766;2022-10-17T16:48:21;18.50;99.90
20372;DHT22;63562;30.520;-97.766;2022-10-17T16:50:56;18.50;99.90
20372;DHT22;63562;30.520;-97.766;2022-10-17T16:53:30;18.50;99.90
20372;DHT22;63562;30.520;-97.766;2022-10-17T16:56:02;18.50;99.90
20372;DHT22;63562;30.520;-97.766;2022-10-17T16:58:35;18.60;99.90
20372;DHT22;63562;30.520;-97.766;2022-10-17T17:01:08;18.50;99.90
20372;DHT22;63562;30.520;-97.766;2022-10-17T17:03:40;18.60;99.90
20372;DHT22;63562;30.520;-97.766;2022-10-17T17:06:17;18.70;99.90
20372;DHT22;63562;30.520;-97.766;2022-10-17T17:08:48;18.70;99.90
20372;DHT22;63562;30.520;-97.766;2022-10-17T17:11:20;18.70;99.90
20372;DHT22;63562;30.520;-97.766;2022-10-17T17:13:54;18.60;99.90
20372;DHT22;63562;30.520;-97.766;2022-10-17T17:16:28;18.60;99.90
20372;DHT22;63562;30.520;-97.766;2022-10-17T17:19:00;18.60;99.90
20372;DHT22;63562;30.520;-97.766;2022-10-17T17:21:31;18.70;99.90
20372;DHT22;63562;30.520;-97.766;2022-10-17T17:24:02;18.80;99.90
20372;DHT22;63562;30.520;-97.766;2022-10-17T17:26:37;18.80;99.90
20372;DHT22;63562;30.520;-97.766;2022-10-17T17:29:06;18.80;99.90
20372;DHT22;63562;30.520;-97.766;2022-10-17T17:31:38;18.80;99.90
20372;DHT22;63562;30.520;-97.766;2022-10-17T17:34:10;18.80;99.90
20372;DHT22;63562;30.520;-97.766;2022-10-17T17:36:45;18.90;99.90
20372;DHT22;63562;30.520;-97.766;2022-10-17T17:39:19;19.00;99.90
20372;DHT22;63562;30.520;-97.766;2022-10-17T17:41:53;19.10;99.90
20372;DHT22;63562;30.520;-97.766;2022-10-17T17:44:23;19.10;99.90
20372;DHT22;63562;30.520;-97.766;2022-10-17T17:46:56;19.00;99.90
20372;DHT22;63562;30.520;-97.766;2022-10-17T17:49:26;19.10;99.90
20372;DHT22;63562;30.520;-97.766;2022-10-17T17:51:58;19.10;99.90
20372;DHT22;63562;30.520;-97.766;2022-10-17T17:54:30;19.10;99.90
20372;DHT22;63562;30.520;-97.766;2022-10-17T17:57:07;19.10;99.90
20372;DHT22;63562;30.520;-97.766;2022-10-17T17:59:37;19.20;99.90
20372;DHT22;63562;30.520;-97.766;2022-10-17T18:02:10;19.30;99.90
20372;DHT22;63562;30.520;-97.766;2022-10-17T18:04:41;19.30;99.90
20372;DHT22;63562;30.520;-97.766;2022-10-17T18:07:12;19.40;99.90
20372;DHT22;63562;30.520;-97.766;2022-10-17T18:09:45;19.30;99.90
20372;DHT22;63562;30.520;-97.766;2022-10-17T18:12:18;19.30;99.90
20372;DHT22;63562;30.520;-97.766;2022-10-17T18:14:48;19.50;99.90
20372;DHT22;63562;30.520;-97.766;2022-10-17T18:17:19;19.50;99.90
20372;DHT22;63562;30.520;-97.766;2022-10-17T18:19:51;19.60;99.90